createdAt,value
2023-03-17T00:02:24.958Z,98476.23
2023-03-17T00:04:54.218Z,98478.43
2023-03-17T00:07:23.950Z,98477.02
2023-03-17T00:09:53.005Z,98477.59
2023-03-17T00:12:24.005Z,98473.56
2023-03-17T00:14:53.997Z,98469.77
2023-03-17T00:17:23.874Z,98476.94
2023-03-17T00:19:54.773Z,98479.75
2023-03-17T00:22:24.426Z,98477.09
2023-03-17T00:24:53.466Z,98478.47
2023-03-17T00:27:24.769Z,98476.77
2023-03-17T00:29:54.434Z,98475.88
2023-03-17T00:32:24.023Z,98478.39
2023-03-17T00:34:53.891Z,98481.27
2023-03-17T00:37:23.376Z,98480.98
2023-03-17T00:39:53.182Z,98476.65
2023-03-17T00:42:23.546Z,98478.27
2023-03-17T00:44:53.974Z,98476.56
2023-03-17T00:47:23.605Z,98475.77
2023-03-17T00:49:53.315Z,98472.55
2023-03-17T00:52:23.326Z,98477.63
2023-03-17T00:54:53.294Z,98473.98
2023-03-17T00:57:24.056Z,98475.39
2023-03-17T00:59:54.901Z,98474.57
2023-03-17T01:02:24.812Z,98474.73
2023-03-17T01:05:05.515Z,98474.46
2023-03-17T01:07:38.625Z,98474.16
2023-03-17T01:10:17.873Z,98473.88
2023-03-17T01:12:47.341Z,98474.98
2023-03-17T01:15:19.484Z,98477.13
2023-03-17T01:17:52.910Z,98477.39
2023-03-17T01:20:26.333Z,98477.66
2023-03-17T01:22:56.434Z,98476.84
2023-03-17T01:25:29.483Z,98474.52
2023-03-17T01:28:03.831Z,98470.82
2023-03-17T01:30:37.965Z,98475.77
2023-03-17T01:33:10.101Z,98473.75
2023-03-17T01:35:39.393Z,98476.41
2023-03-17T01:38:10.292Z,98475.38
2023-03-17T01:40:47.179Z,98474.92
2023-03-17T01:43:20.497Z,98479.26
2023-03-17T01:46:32.968Z,98477.55
2023-03-17T01:49:06.226Z,98483.23
2023-03-17T01:52:01.706Z,98485.49
2023-03-17T01:54:42.507Z,98488.71
2023-03-17T01:57:27.253Z,98493.32
2023-03-17T02:00:16.784Z,98499.17
2023-03-17T02:02:50.535Z,98500.45
2023-03-17T02:05:31.474Z,98506.16
2023-03-17T02:08:00.674Z,98502.05
2023-03-17T02:10:31.364Z,98500.36
2023-03-17T02:13:05.944Z,98502.79
2023-03-17T02:15:51.822Z,98507.04
2023-03-17T02:18:24.680Z,98508.40
2023-03-17T02:20:57.394Z,98505.90
2023-03-17T02:23:27.258Z,98504.71
2023-03-17T02:25:57.225Z,98509.59
2023-03-17T02:28:31.608Z,98512.44
2023-03-17T02:31:01.592Z,98514.32
2023-03-17T02:33:30.891Z,98515.21
2023-03-17T02:36:00.188Z,98515.06
2023-03-17T02:38:29.818Z,98521.73
2023-03-17T02:41:02.498Z,98522.77
2023-03-17T02:43:33.667Z,98523.77
2023-03-17T02:46:06.290Z,98531.20
2023-03-17T02:48:37.748Z,98534.65
2023-03-17T02:51:07.811Z,98538.35
2023-03-17T02:53:37.003Z,98541.61
2023-03-17T02:56:07.994Z,98541.33
2023-03-17T02:58:39.147Z,98549.91
2023-03-17T03:01:10.019Z,98552.18
2023-03-17T03:03:39.471Z,98553.27
2023-03-17T03:06:09.198Z,98554.42
2023-03-17T03:08:38.257Z,98557.69
2023-03-17T03:11:07.581Z,98555.67
2023-03-17T03:13:38.591Z,98560.91
2023-03-17T03:16:09.776Z,98566.54
2023-03-17T03:18:40.105Z,98564.18
2023-03-17T03:21:11.719Z,98568.80
2023-03-17T03:23:42.664Z,98568.88
2023-03-17T03:26:12.532Z,98570.68
2023-03-17T03:28:42.018Z,98570.23
2023-03-17T03:31:14.403Z,98574.29
2023-03-17T03:33:44.933Z,98577.77
2023-03-17T03:36:14.118Z,98579.11
2023-03-17T03:38:43.582Z,98582.37
2023-03-17T03:41:13.572Z,98587.06
2023-03-17T03:43:42.808Z,98589.41
2023-03-17T03:46:12.404Z,98591.88
2023-03-17T03:48:43.328Z,98591.27
2023-03-17T03:51:12.707Z,98591.55
2023-03-17T03:53:42.842Z,98597.52
2023-03-17T03:56:12.984Z,98600.33
2023-03-17T03:58:42.215Z,98604.90
2023-03-17T04:01:11.696Z,98610.69
2023-03-17T04:03:41.545Z,98609.90
2023-03-17T04:06:11.750Z,98606.33
2023-03-17T04:08:42.096Z,98609.75
2023-03-17T04:11:12.072Z,98609.95
2023-03-17T04:13:42.039Z,98609.39
2023-03-17T04:16:12.032Z,98611.57
2023-03-17T04:18:42.327Z,98611.28
2023-03-17T04:21:11.773Z,98613.88
2023-03-17T04:23:41.092Z,98615.77
2023-03-17T04:26:14.174Z,98617.43
2023-03-17T04:28:46.069Z,98619.52
2023-03-17T04:31:16.690Z,98623.63
2023-03-17T04:33:46.054Z,98626.33
2023-03-17T04:36:22.294Z,98624.09
2023-03-17T04:38:53.196Z,98630.05
2023-03-17T04:41:23.186Z,98626.30
2023-03-17T04:43:57.052Z,98626.20
2023-03-17T04:46:27.679Z,98630.48
2023-03-17T04:48:58.093Z,98627.35
2023-03-17T04:51:47.339Z,98627.92
2023-03-17T04:54:17.095Z,98630.52
2023-03-17T04:56:47.271Z,98628.93
2023-03-17T04:59:16.764Z,98628.88
2023-03-17T05:01:55.615Z,98630.51
2023-03-17T05:04:31.543Z,98629.41
2023-03-17T05:07:05.267Z,98630.67
2023-03-17T05:09:38.732Z,98631.19
2023-03-17T05:12:10.746Z,98637.13
2023-03-17T05:14:48.109Z,98642.86
2023-03-17T05:17:17.792Z,98637.08
2023-03-17T05:19:51.392Z,98634.84
2023-03-17T05:22:21.081Z,98644.41
2023-03-17T05:24:54.304Z,98641.93
2023-03-17T05:27:23.674Z,98642.82
2023-03-17T05:29:55.851Z,98641.08
2023-03-17T05:32:26.897Z,98648.03
2023-03-17T05:34:57.736Z,98652.17
2023-03-17T05:37:33.051Z,98649.48
2023-03-17T05:40:05.618Z,98650.27
2023-03-17T05:42:43.919Z,98652.23
2023-03-17T05:45:13.553Z,98655.91
2023-03-17T05:47:46.127Z,98650.84
2023-03-17T05:50:16.515Z,98655.97
2023-03-17T05:52:45.993Z,98654.80
2023-03-17T05:55:15.288Z,98654.67
2023-03-17T05:57:45.002Z,98657.59
2023-03-17T06:00:17.534Z,98656.27
2023-03-17T06:02:47.626Z,98652.48
2023-03-17T06:05:19.156Z,98650.59
2023-03-17T06:07:55.596Z,98648.96
2023-03-17T06:10:27.625Z,98650.08
2023-03-17T06:13:16.866Z,98647.90
2023-03-17T06:15:55.430Z,98649.30
2023-03-17T06:18:25.090Z,98652.31
2023-03-17T06:20:55.198Z,98651.47
2023-03-17T06:23:26.327Z,98652.25
2023-03-17T06:25:56.898Z,98653.44
2023-03-17T06:28:26.958Z,98656.27
2023-03-17T06:30:57.155Z,98658.56
2023-03-17T06:33:27.645Z,98662.89
2023-03-17T06:35:59.387Z,98664.58
2023-03-17T06:38:30.556Z,98668.06
2023-03-17T06:40:59.714Z,98671.30
2023-03-17T06:43:29.054Z,98675.12
2023-03-17T06:46:01.907Z,98677.64
2023-03-17T06:48:31.597Z,98682.67
2023-03-17T06:51:04.786Z,98683.33
2023-03-17T06:53:34.210Z,98685.09
2023-03-17T06:56:06.410Z,98681.75
2023-03-17T06:58:36.756Z,98688.15
2023-03-17T07:01:30.176Z,98690.61
2023-03-17T07:04:02.913Z,98689.59
2023-03-17T07:06:34.229Z,98691.39
2023-03-17T07:09:07.932Z,98684.40
2023-03-17T07:11:50.089Z,98690.39
2023-03-17T07:14:21.318Z,98693.34
2023-03-17T07:16:50.759Z,98692.54
2023-03-17T07:19:20.554Z,98694.57
2023-03-17T07:21:49.697Z,98687.83
2023-03-17T07:24:19.934Z,98687.64
2023-03-17T07:26:53.654Z,98684.61
2023-03-17T07:29:24.656Z,98688.06
2023-03-17T07:31:55.437Z,98689.69
2023-03-17T07:34:26.830Z,98687.17
2023-03-17T07:36:56.356Z,98693.14
2023-03-17T07:39:29.608Z,98695.91
2023-03-17T07:42:02.920Z,98693.61
2023-03-17T07:44:33.854Z,98699.00
2023-03-17T07:47:03.184Z,98698.27
2023-03-17T07:49:41.349Z,98695.58
2023-03-17T07:52:13.514Z,98692.71
2023-03-17T07:54:43.319Z,98689.55
2023-03-17T07:57:14.431Z,98688.66
2023-03-17T07:59:43.972Z,98685.46
2023-03-17T08:02:17.250Z,98683.05
2023-03-17T08:04:47.091Z,98684.71
2023-03-17T08:07:17.660Z,98681.54
2023-03-17T08:09:53.414Z,98676.62
2023-03-17T08:12:28.323Z,98678.23
2023-03-17T08:15:07.109Z,98680.83
2023-03-17T08:17:43.645Z,98676.73
2023-03-17T08:20:22.333Z,98681.89
2023-03-17T08:22:52.692Z,98679.16
2023-03-17T08:25:22.433Z,98681.55
2023-03-17T08:27:54.540Z,98684.66
2023-03-17T08:30:25.957Z,98681.67
2023-03-17T08:32:55.861Z,98684.27
2023-03-17T08:35:25.910Z,98681.69
2023-03-17T08:37:58.009Z,98680.99
2023-03-17T08:40:28.050Z,98679.20
2023-03-17T08:42:58.119Z,98671.08
2023-03-17T08:45:27.354Z,98675.25
2023-03-17T08:47:58.098Z,98675.52
2023-03-17T08:50:28.392Z,98675.23
2023-03-17T08:52:57.778Z,98672.48
2023-03-17T08:55:29.095Z,98670.63
2023-03-17T08:57:58.252Z,98670.68
2023-03-17T09:00:29.005Z,98667.86
2023-03-17T09:03:00.083Z,98665.12
2023-03-17T09:05:30.138Z,98666.53
2023-03-17T09:08:01.236Z,98663.69
2023-03-17T09:10:31.444Z,98667.77
2023-03-17T09:13:04.410Z,98667.69
2023-03-17T09:15:39.364Z,98662.95
2023-03-17T09:18:11.015Z,98663.80
2023-03-17T09:20:40.168Z,98661.52
2023-03-17T09:23:21.360Z,98658.88
2023-03-17T09:26:05.620Z,98650.87
2023-03-17T09:28:37.957Z,98643.92
2023-03-17T09:31:18.189Z,98648.08
2023-03-17T09:33:48.534Z,98644.14
2023-03-17T09:36:18.348Z,98644.08
2023-03-17T09:38:47.844Z,98644.11
2023-03-17T09:41:58.002Z,98638.10
2023-03-17T09:45:13.729Z,98641.17
2023-03-17T09:48:14.629Z,98641.71
2023-03-17T09:51:12.170Z,98642.95
2023-03-17T09:54:02.879Z,98645.91
2023-03-17T09:56:38.899Z,98640.60
2023-03-17T09:59:38.524Z,98636.48
2023-03-17T10:02:32.663Z,98638.91
2023-03-17T10:05:28.775Z,98635.59
2023-03-17T10:08:33.123Z,98635.40
2023-03-17T10:11:15.815Z,98638.52
2023-03-17T10:13:55.893Z,98635.61
2023-03-17T10:16:31.103Z,98631.73
2023-03-17T10:19:10.876Z,98629.99
2023-03-17T10:21:50.621Z,98632.39
2023-03-17T10:24:22.472Z,98630.02
2023-03-17T10:26:58.223Z,98627.98
2023-03-17T10:29:28.316Z,98625.02
2023-03-17T10:31:59.215Z,98619.80
2023-03-17T10:34:37.782Z,98613.91
2023-03-17T10:37:18.008Z,98608.73
2023-03-17T10:40:00.173Z,98604.52
2023-03-17T10:42:36.244Z,98606.27
2023-03-17T10:45:18.203Z,98602.98
2023-03-17T10:47:52.657Z,98601.79
2023-03-17T10:50:38.477Z,98597.39
2023-03-17T10:53:28.656Z,98598.44
2023-03-17T10:56:08.911Z,98597.80
2023-03-17T10:58:49.544Z,98592.77
2023-03-17T11:01:30.681Z,98588.55
2023-03-17T11:04:02.997Z,98581.04
2023-03-17T11:06:38.572Z,98576.54
2023-03-17T11:09:11.547Z,98572.45
2023-03-17T11:11:47.417Z,98569.41
2023-03-17T11:14:30.992Z,98571.86
2023-03-17T11:17:21.664Z,98565.95
2023-03-17T11:20:32.653Z,98561.23
2023-03-17T11:23:33.233Z,98554.86
2023-03-17T11:26:18.779Z,98550.17
2023-03-17T11:29:02.412Z,98542.08
2023-03-17T11:31:45.415Z,98533.13
2023-03-17T11:34:26.319Z,98530.50
2023-03-17T11:37:26.803Z,98524.37
2023-03-17T11:40:19.325Z,98527.92
2023-03-17T11:43:32.874Z,98522.09
2023-03-17T11:46:13.741Z,98523.25
2023-03-17T11:48:55.723Z,98525.48
2023-03-17T11:51:45.842Z,98523.20
2023-03-17T11:54:47.434Z,98517.77
2023-03-17T11:57:49.023Z,98516.64
2023-03-17T12:00:29.566Z,98504.95
2023-03-17T12:03:29.180Z,98505.44
2023-03-17T12:06:06.044Z,98506.27
2023-03-17T12:09:03.969Z,98503.61
2023-03-17T12:11:43.965Z,98495.87
2023-03-17T12:14:30.494Z,98495.15
2023-03-17T12:17:33.237Z,98489.48
2023-03-17T12:20:19.281Z,98490.15
2023-03-17T12:23:31.509Z,98489.44
2023-03-17T12:26:15.262Z,98496.35
2023-03-17T12:29:00.893Z,98486.84
2023-03-17T12:31:49.413Z,98483.92
2023-03-17T12:34:46.174Z,98483.77
2023-03-17T12:37:18.197Z,98480.24
2023-03-17T12:40:01.106Z,98474.71
2023-03-17T12:43:09.323Z,98479.71
2023-03-17T12:45:48.884Z,98477.73
2023-03-17T12:48:24.300Z,98468.08
2023-03-17T12:51:41.147Z,98461.51
2023-03-17T12:54:28.680Z,98460.71
2023-03-17T12:57:21.146Z,98454.65
2023-03-17T13:00:17.599Z,98450.25
2023-03-17T13:03:09.537Z,98450.36
2023-03-17T13:05:39.013Z,98444.88
2023-03-17T13:08:14.000Z,98447.35
2023-03-17T13:10:49.059Z,98448.03
2023-03-17T13:14:14.744Z,98449.39
2023-03-17T13:16:48.009Z,98442.48
2023-03-17T13:19:23.163Z,98434.31
2023-03-17T13:22:21.919Z,98429.92
2023-03-17T13:24:53.975Z,98431.16
2023-03-17T13:27:49.086Z,98422.00
2023-03-17T13:30:27.032Z,98418.29
2023-03-17T13:33:10.650Z,98420.46
2023-03-17T13:36:01.017Z,98418.80
2023-03-17T13:38:39.884Z,98418.86
2023-03-17T13:41:42.715Z,98416.41
2023-03-17T13:44:37.382Z,98414.79
2023-03-17T13:47:34.900Z,98412.23
2023-03-17T13:50:14.805Z,98409.92
2023-03-17T13:52:57.106Z,98409.44
2023-03-17T13:55:39.348Z,98413.64
2023-03-17T13:58:11.861Z,98408.90
2023-03-17T14:00:51.332Z,98406.57
2023-03-17T14:03:49.602Z,98406.81
2023-03-17T14:06:22.132Z,98410.89
2023-03-17T14:09:20.935Z,98407.48
2023-03-17T14:11:51.713Z,98401.02
2023-03-17T14:14:33.680Z,98397.06
2023-03-17T14:17:26.652Z,98399.03
2023-03-17T14:20:11.441Z,98400.13
2023-03-17T14:22:45.206Z,98399.84
2023-03-17T14:25:20.560Z,98396.79
2023-03-17T14:27:56.563Z,98396.30
2023-03-17T14:30:31.594Z,98394.99
2023-03-17T14:33:23.098Z,98394.95
2023-03-17T14:35:58.305Z,98395.64
2023-03-17T14:38:32.588Z,98397.70
2023-03-17T14:41:06.590Z,98401.98
2023-03-17T14:43:36.971Z,98403.30
2023-03-17T14:46:39.101Z,98399.01
2023-03-17T14:49:21.870Z,98403.56
2023-03-17T14:51:59.620Z,98402.37
2023-03-17T14:54:34.611Z,98400.52
2023-03-17T14:57:16.192Z,98400.55
2023-03-17T14:59:59.861Z,98398.19
2023-03-17T15:02:38.424Z,98397.14
2023-03-17T15:05:29.780Z,98391.02
2023-03-17T15:08:00.131Z,98396.98
2023-03-17T15:10:44.343Z,98401.35
2023-03-17T15:13:14.322Z,98402.02
2023-03-17T15:15:47.314Z,98399.45
2023-03-17T15:18:21.735Z,98394.04
2023-03-17T15:20:50.936Z,98393.63
2023-03-17T15:23:23.284Z,98390.41
2023-03-17T15:25:57.635Z,98392.98
2023-03-17T15:28:31.843Z,98393.13
2023-03-17T15:32:10.040Z,98393.89
2023-03-17T15:34:39.229Z,98395.08
2023-03-17T15:37:20.361Z,98396.20
2023-03-17T15:39:51.140Z,98396.91
2023-03-17T15:42:31.003Z,98395.58
2023-03-17T15:45:03.163Z,98395.39
2023-03-17T15:47:37.187Z,98396.19
2023-03-17T15:50:22.238Z,98398.83
2023-03-17T15:52:56.531Z,98401.44
2023-03-17T15:55:31.406Z,98397.92
2023-03-17T15:58:07.209Z,98398.25
2023-03-17T16:00:46.102Z,98399.48
2023-03-17T16:03:38.158Z,98398.31
2023-03-17T16:06:22.331Z,98399.26
2023-03-17T16:08:52.126Z,98398.68
2023-03-17T16:11:33.908Z,98402.77
2023-03-17T16:14:09.856Z,98403.70
2023-03-17T16:16:46.074Z,98402.89
2023-03-17T16:19:23.448Z,98400.98
2023-03-17T16:21:55.753Z,98408.92
2023-03-17T16:24:28.751Z,98407.44
2023-03-17T16:26:58.765Z,98410.69
2023-03-17T16:29:34.562Z,98414.63
2023-03-17T16:32:03.902Z,98413.50
2023-03-17T16:34:42.159Z,98414.98
2023-03-17T16:37:24.871Z,98417.44
2023-03-17T16:39:54.820Z,98417.16
2023-03-17T16:42:24.857Z,98421.11
2023-03-17T16:44:55.404Z,98422.61
2023-03-17T16:47:25.756Z,98423.09
2023-03-17T16:49:55.734Z,98424.91
2023-03-17T16:52:26.121Z,98426.12
2023-03-17T16:55:01.670Z,98429.19
2023-03-17T16:57:33.707Z,98434.23
2023-03-17T17:00:11.187Z,98431.23
2023-03-17T17:02:41.826Z,98439.21
2023-03-17T17:05:21.503Z,98442.95
2023-03-17T17:07:52.503Z,98442.88
2023-03-17T17:10:23.134Z,98438.69
2023-03-17T17:12:55.027Z,98441.79
2023-03-17T17:15:24.757Z,98439.94
2023-03-17T17:18:04.155Z,98444.55
2023-03-17T17:20:38.165Z,98441.02
2023-03-17T17:23:13.926Z,98442.48
2023-03-17T17:25:48.177Z,98446.12
2023-03-17T17:28:23.764Z,98445.91
2023-03-17T17:31:17.114Z,98447.83
2023-03-17T17:33:55.749Z,98450.47
2023-03-17T17:37:17.568Z,98455.83
2023-03-17T17:39:53.654Z,98456.61
2023-03-17T17:43:07.771Z,98454.88
2023-03-17T17:46:02.887Z,98456.02
2023-03-17T17:48:33.695Z,98451.13
2023-03-17T17:51:44.146Z,98447.40
2023-03-17T17:54:19.065Z,98446.72
2023-03-17T17:56:48.540Z,98448.19
2023-03-17T17:59:19.054Z,98448.73
2023-03-17T18:01:49.370Z,98448.50
2023-03-17T18:04:19.690Z,98449.13
2023-03-17T18:06:49.712Z,98445.70
2023-03-17T18:09:29.438Z,98449.10
2023-03-17T18:12:00.524Z,98446.25
2023-03-17T18:14:32.526Z,98447.02
2023-03-17T18:17:25.055Z,98448.15
2023-03-17T18:19:55.498Z,98449.46
2023-03-17T18:22:25.720Z,98453.79
2023-03-17T18:24:55.663Z,98456.81
2023-03-17T18:27:42.505Z,98459.59
2023-03-17T18:30:20.009Z,98456.51
2023-03-17T18:32:53.308Z,98457.86
2023-03-17T18:35:25.264Z,98460.33
2023-03-17T18:37:58.120Z,98458.83
2023-03-17T18:40:34.117Z,98459.74
2023-03-17T18:43:07.665Z,98461.92
2023-03-17T18:45:49.743Z,98462.22
2023-03-17T18:48:27.657Z,98459.55
2023-03-17T18:50:57.588Z,98460.56
2023-03-17T18:53:47.551Z,98464.24
2023-03-17T18:56:47.255Z,98463.67
2023-03-17T18:59:16.637Z,98463.71
2023-03-17T19:01:55.275Z,98463.50
2023-03-17T19:04:31.005Z,98465.38
2023-03-17T19:07:26.491Z,98468.21
2023-03-17T19:09:57.567Z,98471.80
2023-03-17T19:12:28.562Z,98475.36
2023-03-17T19:14:59.631Z,98479.86
2023-03-17T19:17:29.042Z,98483.98
2023-03-17T19:20:00.062Z,98489.86
2023-03-17T19:22:29.314Z,98491.31
2023-03-17T19:24:59.426Z,98490.45
2023-03-17T19:27:32.704Z,98490.67
2023-03-17T19:30:07.497Z,98488.49
2023-03-17T19:32:37.279Z,98484.16
2023-03-17T19:35:14.896Z,98481.13
2023-03-17T19:37:45.751Z,98483.25
2023-03-17T19:40:15.665Z,98483.89
2023-03-17T19:42:46.097Z,98482.34
2023-03-17T19:45:18.680Z,98486.27
2023-03-17T19:47:48.374Z,98486.23
2023-03-17T19:50:18.585Z,98480.39
2023-03-17T19:52:53.688Z,98478.48
2023-03-17T19:55:36.250Z,98482.89
2023-03-17T19:58:08.511Z,98484.70
2023-03-17T20:00:42.215Z,98481.97
2023-03-17T20:03:51.507Z,98480.54
2023-03-17T20:06:34.063Z,98486.35
2023-03-17T20:09:23.585Z,98491.62
2023-03-17T20:12:04.424Z,98491.12
2023-03-17T20:14:53.660Z,98486.95
2023-03-17T20:17:43.181Z,98486.33
2023-03-17T20:20:28.721Z,98490.84
2023-03-17T20:23:07.074Z,98487.97
2023-03-17T20:26:11.268Z,98491.00
2023-03-17T20:28:52.663Z,98488.45
2023-03-17T20:31:43.173Z,98486.52
2023-03-17T20:34:13.383Z,98490.15
2023-03-17T20:37:05.601Z,98486.04
2023-03-17T20:39:38.823Z,98484.65
2023-03-17T20:42:15.118Z,98484.93
2023-03-17T20:44:53.854Z,98485.30
2023-03-17T20:47:24.675Z,98481.34
2023-03-17T20:50:01.151Z,98483.79
2023-03-17T20:52:36.913Z,98485.50
2023-03-17T20:55:17.224Z,98481.77
2023-03-17T20:57:54.727Z,98479.38
2023-03-17T21:00:28.817Z,98479.73
2023-03-17T21:03:30.473Z,98482.30
2023-03-17T21:06:00.891Z,98484.21
2023-03-17T21:08:50.162Z,98479.70
2023-03-17T21:11:31.536Z,98478.88
2023-03-17T21:14:09.544Z,98476.04
2023-03-17T21:16:45.350Z,98471.73
2023-03-17T21:19:19.483Z,98466.70
2023-03-17T21:21:57.568Z,98465.46
2023-03-17T21:24:40.291Z,98465.27
2023-03-17T21:27:16.593Z,98464.27
2023-03-17T21:30:34.367Z,98469.41
2023-03-17T21:39:48.787Z,98461.14
2023-03-17T21:43:12.843Z,98472.16
2023-03-17T21:45:51.878Z,98472.82
2023-03-17T21:48:25.209Z,98470.30
2023-03-17T21:50:56.393Z,98469.23
2023-03-17T21:53:49.452Z,98472.46
2023-03-17T21:56:23.622Z,98471.53
2023-03-17T21:59:08.515Z,98470.61
2023-03-17T22:02:23.736Z,98469.96
2023-03-17T22:05:11.523Z,98466.89
2023-03-17T22:07:48.153Z,98469.23
2023-03-17T22:10:20.341Z,98473.54
2023-03-17T22:13:40.574Z,98476.89
2023-03-17T22:16:32.788Z,98474.41
2023-03-17T22:19:10.169Z,98472.43
2023-03-17T22:21:56.988Z,98479.82
2023-03-17T22:24:27.008Z,98473.42
2023-03-17T22:26:56.582Z,98474.68
2023-03-17T22:29:30.406Z,98481.96
2023-03-17T22:32:03.421Z,98486.29
2023-03-17T22:34:33.194Z,98487.17
2023-03-17T22:37:08.534Z,98491.89
2023-03-17T22:39:38.665Z,98506.03
2023-03-17T22:42:09.157Z,98512.38
2023-03-17T22:44:43.736Z,98528.46
2023-03-17T22:47:13.068Z,98531.82
2023-03-17T22:49:42.986Z,98529.05
2023-03-17T22:52:14.026Z,98529.08
2023-03-17T22:54:44.697Z,98521.54
2023-03-17T22:57:15.675Z,98532.63
2023-03-17T22:59:54.715Z,98530.32
2023-03-17T23:02:29.062Z,98536.54
2023-03-17T23:05:04.386Z,98537.79
2023-03-17T23:07:47.992Z,98528.56
2023-03-17T23:10:25.867Z,98523.89
2023-03-17T23:13:11.859Z,98530.94
2023-03-17T23:15:45.736Z,98529.45
2023-03-17T23:18:20.578Z,98526.30
2023-03-17T23:20:53.750Z,98527.96
2023-03-17T23:23:30.558Z,98523.95
2023-03-17T23:26:03.478Z,98523.56
2023-03-17T23:28:37.891Z,98529.90
2023-03-17T23:31:11.688Z,98533.79
2023-03-17T23:33:44.565Z,98530.11
2023-03-17T23:36:18.547Z,98527.61
2023-03-17T23:38:49.096Z,98525.06
2023-03-17T23:41:20.235Z,98529.86
2023-03-17T23:43:54.862Z,98529.38
2023-03-17T23:46:26.160Z,98528.54
2023-03-17T23:48:56.626Z,98519.52
2023-03-17T23:51:27.871Z,98519.28
2023-03-17T23:53:58.550Z,98519.34
2023-03-17T23:56:32.813Z,98519.89
2023-03-17T23:59:04.456Z,98521.75
